sensor_id;sensor_type;location;lat;lon;timestamp;P1;durP1;ratioP1;P2;durP2;ratioP2
12597;SDS011;6364;53.590;9.956;2023-08-01T00:01:05;14.70;;;7.50;;
12597;SDS011;6364;53.590;9.956;2023-08-01T00:03:31;9.35;;;6.60;;
12597;SDS011;6364;53.590;9.956;2023-08-01T00:05:56;9.25;;;6.78;;
12597;SDS011;6364;53.590;9.956;2023-08-01T00:08:22;7.53;;;6.22;;
12597;SDS011;6364;53.590;9.956;2023-08-01T00:10:47;8.90;;;6.00;;
12597;SDS011;6364;53.590;9.956;2023-08-01T00:13:12;6.60;;;5.25;;
12597;SDS011;6364;53.590;9.956;2023-08-01T00:15:38;6.05;;;4.90;;
12597;SDS011;6364;53.590;9.956;2023-08-01T00:18:03;6.95;;;4.95;;
12597;SDS011;6364;53.590;9.956;2023-08-01T00:20:28;6.50;;;4.93;;
12597;SDS011;6364;53.590;9.956;2023-08-01T00:22:54;6.38;;;4.35;;
12597;SDS011;6364;53.590;9.956;2023-08-01T00:25:19;5.80;;;4.63;;
12597;SDS011;6364;53.590;9.956;2023-08-01T00:27:45;7.32;;;4.30;;
12597;SDS011;6364;53.590;9.956;2023-08-01T00:30:10;7.22;;;4.95;;
12597;SDS011;6364;53.590;9.956;2023-08-01T00:32:36;4.68;;;3.85;;
12597;SDS011;6364;53.590;9.956;2023-08-01T00:35:01;5.20;;;3.70;;
12597;SDS011;6364;53.590;9.956;2023-08-01T00:37:26;5.30;;;3.85;;
12597;SDS011;6364;53.590;9.956;2023-08-01T00:39:52;6.68;;;4.10;;
12597;SDS011;6364;53.590;9.956;2023-08-01T00:42:17;5.93;;;4.30;;
12597;SDS011;6364;53.590;9.956;2023-08-01T00:44:42;5.38;;;3.80;;
12597;SDS011;6364;53.590;9.956;2023-08-01T00:47:08;5.78;;;4.40;;
12597;SDS011;6364;53.590;9.956;2023-08-01T00:49:33;6.28;;;4.72;;
12597;SDS011;6364;53.590;9.956;2023-08-01T00:51:59;5.50;;;4.38;;
12597;SDS011;6364;53.590;9.956;2023-08-01T00:54:25;10.68;;;4.70;;
12597;SDS011;6364;53.590;9.956;2023-08-01T00:56:50;8.38;;;4.65;;
12597;SDS011;6364;53.590;9.956;2023-08-01T00:59:16;7.63;;;4.85;;
12597;SDS011;6364;53.590;9.956;2023-08-01T01:01:41;7.30;;;4.78;;
12597;SDS011;6364;53.590;9.956;2023-08-01T01:04:06;11.70;;;4.85;;
12597;SDS011;6364;53.590;9.956;2023-08-01T01:06:32;7.78;;;4.97;;
12597;SDS011;6364;53.590;9.956;2023-08-01T01:09:01;9.43;;;4.93;;
12597;SDS011;6364;53.590;9.956;2023-08-01T01:11:29;10.63;;;4.82;;
12597;SDS011;6364;53.590;9.956;2023-08-01T01:13:55;8.40;;;5.30;;
12597;SDS011;6364;53.590;9.956;2023-08-01T01:16:20;9.52;;;5.45;;
12597;SDS011;6364;53.590;9.956;2023-08-01T01:18:45;11.93;;;6.75;;
12597;SDS011;6364;53.590;9.956;2023-08-01T01:21:11;8.77;;;6.97;;
12597;SDS011;6364;53.590;9.956;2023-08-01T01:23:36;10.23;;;7.22;;
12597;SDS011;6364;53.590;9.956;2023-08-01T01:26:02;11.98;;;7.93;;
12597;SDS011;6364;53.590;9.956;2023-08-01T01:28:28;12.38;;;7.75;;
12597;SDS011;6364;53.590;9.956;2023-08-01T01:30:54;12.40;;;7.90;;
12597;SDS011;6364;53.590;9.956;2023-08-01T01:33:20;14.23;;;7.43;;
12597;SDS011;6364;53.590;9.956;2023-08-01T01:35:45;14.95;;;8.35;;
12597;SDS011;6364;53.590;9.956;2023-08-01T01:38:12;15.88;;;9.20;;
12597;SDS011;6364;53.590;9.956;2023-08-01T01:40:37;16.50;;;8.30;;
12597;SDS011;6364;53.590;9.956;2023-08-01T01:43:02;16.15;;;9.70;;
12597;SDS011;6364;53.590;9.956;2023-08-01T01:45:28;19.15;;;10.13;;
12597;SDS011;6364;53.590;9.956;2023-08-01T01:47:53;16.95;;;10.13;;
12597;SDS011;6364;53.590;9.956;2023-08-01T01:50:18;18.40;;;10.15;;
12597;SDS011;6364;53.590;9.956;2023-08-01T01:52:44;16.77;;;9.63;;
12597;SDS011;6364;53.590;9.956;2023-08-01T01:55:10;19.75;;;10.60;;
12597;SDS011;6364;53.590;9.956;2023-08-01T01:57:35;22.75;;;11.40;;
12597;SDS011;6364;53.590;9.956;2023-08-01T02:00:05;17.83;;;10.90;;
12597;SDS011;6364;53.590;9.956;2023-08-01T02:02:30;17.52;;;11.02;;
12597;SDS011;6364;53.590;9.956;2023-08-01T02:04:56;22.98;;;11.18;;
12597;SDS011;6364;53.590;9.956;2023-08-01T02:07:21;20.52;;;10.68;;
12597;SDS011;6364;53.590;9.956;2023-08-01T02:09:47;24.35;;;11.57;;
12597;SDS011;6364;53.590;9.956;2023-08-01T02:12:15;22.27;;;12.25;;
12597;SDS011;6364;53.590;9.956;2023-08-01T02:14:41;21.58;;;11.98;;
12597;SDS011;6364;53.590;9.956;2023-08-01T02:17:06;23.55;;;12.85;;
12597;SDS011;6364;53.590;9.956;2023-08-01T02:19:32;24.58;;;13.52;;
12597;SDS011;6364;53.590;9.956;2023-08-01T02:21:58;26.73;;;13.35;;
12597;SDS011;6364;53.590;9.956;2023-08-01T02:24:23;31.15;;;15.05;;
12597;SDS011;6364;53.590;9.956;2023-08-01T02:26:49;30.17;;;15.43;;
12597;SDS011;6364;53.590;9.956;2023-08-01T02:29:15;28.85;;;14.85;;
12597;SDS011;6364;53.590;9.956;2023-08-01T02:31:41;28.92;;;15.88;;
12597;SDS011;6364;53.590;9.956;2023-08-01T02:34:06;35.00;;;16.52;;
12597;SDS011;6364;53.590;9.956;2023-08-01T02:36:32;28.10;;;15.98;;
12597;SDS011;6364;53.590;9.956;2023-08-01T02:38:57;35.00;;;16.40;;
12597;SDS011;6364;53.590;9.956;2023-08-01T02:41:22;34.08;;;17.23;;
12597;SDS011;6364;53.590;9.956;2023-08-01T02:43:48;36.08;;;19.27;;
12597;SDS011;6364;53.590;9.956;2023-08-01T02:46:13;32.72;;;16.88;;
12597;SDS011;6364;53.590;9.956;2023-08-01T02:48:38;32.92;;;17.15;;
12597;SDS011;6364;53.590;9.956;2023-08-01T02:51:04;38.03;;;18.33;;
12597;SDS011;6364;53.590;9.956;2023-08-01T02:53:29;35.70;;;18.88;;
12597;SDS011;6364;53.590;9.956;2023-08-01T02:55:54;38.08;;;18.70;;
12597;SDS011;6364;53.590;9.956;2023-08-01T02:58:20;38.53;;;19.33;;
12597;SDS011;6364;53.590;9.956;2023-08-01T03:00:45;37.15;;;19.30;;
12597;SDS011;6364;53.590;9.956;2023-08-01T03:03:12;40.80;;;19.80;;
12597;SDS011;6364;53.590;9.956;2023-08-01T03:05:38;36.08;;;19.08;;
12597;SDS011;6364;53.590;9.956;2023-08-01T03:08:04;39.35;;;19.35;;
12597;SDS011;6364;53.590;9.956;2023-08-01T03:10:29;41.22;;;20.17;;
12597;SDS011;6364;53.590;9.956;2023-08-01T03:12:55;38.60;;;18.67;;
12597;SDS011;6364;53.590;9.956;2023-08-01T03:15:20;41.50;;;20.08;;
12597;SDS011;6364;53.590;9.956;2023-08-01T03:17:45;42.47;;;21.17;;
12597;SDS011;6364;53.590;9.956;2023-08-01T03:20:11;47.03;;;20.42;;
12597;SDS011;6364;53.590;9.956;2023-08-01T03:22:40;44.97;;;21.00;;
12597;SDS011;6364;53.590;9.956;2023-08-01T03:25:06;40.28;;;21.40;;
12597;SDS011;6364;53.590;9.956;2023-08-01T03:27:33;47.00;;;21.02;;
12597;SDS011;6364;53.590;9.956;2023-08-01T03:29:58;37.00;;;20.67;;
12597;SDS011;6364;53.590;9.956;2023-08-01T03:32:24;48.05;;;22.42;;
12597;SDS011;6364;53.590;9.956;2023-08-01T03:34:49;39.58;;;20.15;;
12597;SDS011;6364;53.590;9.956;2023-08-01T03:37:15;42.55;;;22.08;;
12597;SDS011;6364;53.590;9.956;2023-08-01T03:39:41;45.92;;;21.73;;
12597;SDS011;6364;53.590;9.956;2023-08-01T03:42:06;44.00;;;22.38;;
12597;SDS011;6364;53.590;9.956;2023-08-01T03:44:32;40.78;;;21.50;;
12597;SDS011;6364;53.590;9.956;2023-08-01T03:46:58;39.33;;;21.30;;
12597;SDS011;6364;53.590;9.956;2023-08-01T03:49:24;39.78;;;21.00;;
12597;SDS011;6364;53.590;9.956;2023-08-01T03:51:49;44.53;;;22.30;;
12597;SDS011;6364;53.590;9.956;2023-08-01T03:54:15;40.88;;;20.83;;
12597;SDS011;6364;53.590;9.956;2023-08-01T03:56:40;38.78;;;20.85;;
12597;SDS011;6364;53.590;9.956;2023-08-01T03:59:08;41.83;;;21.55;;
12597;SDS011;6364;53.590;9.956;2023-08-01T04:01:42;38.38;;;19.38;;
12597;SDS011;6364;53.590;9.956;2023-08-01T04:04:08;39.25;;;20.77;;
12597;SDS011;6364;53.590;9.956;2023-08-01T04:06:34;41.33;;;22.23;;
12597;SDS011;6364;53.590;9.956;2023-08-01T04:08:59;36.08;;;20.50;;
12597;SDS011;6364;53.590;9.956;2023-08-01T04:11:25;40.67;;;19.92;;
12597;SDS011;6364;53.590;9.956;2023-08-01T04:13:51;40.63;;;21.10;;
12597;SDS011;6364;53.590;9.956;2023-08-01T04:16:17;34.63;;;18.65;;
12597;SDS011;6364;53.590;9.956;2023-08-01T04:18:42;35.08;;;19.00;;
12597;SDS011;6364;53.590;9.956;2023-08-01T04:21:07;35.03;;;20.50;;
12597;SDS011;6364;53.590;9.956;2023-08-01T04:23:33;38.30;;;21.30;;
12597;SDS011;6364;53.590;9.956;2023-08-01T04:25:58;41.00;;;19.83;;
12597;SDS011;6364;53.590;9.956;2023-08-01T04:28:24;34.13;;;20.55;;
12597;SDS011;6364;53.590;9.956;2023-08-01T04:30:50;34.30;;;19.58;;
12597;SDS011;6364;53.590;9.956;2023-08-01T04:33:16;34.42;;;19.23;;
12597;SDS011;6364;53.590;9.956;2023-08-01T04:35:41;37.28;;;20.25;;
12597;SDS011;6364;53.590;9.956;2023-08-01T04:38:06;37.30;;;19.13;;
12597;SDS011;6364;53.590;9.956;2023-08-01T04:40:33;32.00;;;19.45;;
12597;SDS011;6364;53.590;9.956;2023-08-01T04:42:59;33.78;;;19.15;;
12597;SDS011;6364;53.590;9.956;2023-08-01T04:45:25;38.25;;;19.65;;
12597;SDS011;6364;53.590;9.956;2023-08-01T04:47:50;32.85;;;18.98;;
12597;SDS011;6364;53.590;9.956;2023-08-01T04:50:15;35.45;;;18.73;;
12597;SDS011;6364;53.590;9.956;2023-08-01T04:52:41;33.13;;;18.73;;
12597;SDS011;6364;53.590;9.956;2023-08-01T04:55:06;41.15;;;20.25;;
12597;SDS011;6364;53.590;9.956;2023-08-01T04:57:32;30.98;;;19.02;;
12597;SDS011;6364;53.590;9.956;2023-08-01T04:59:57;37.67;;;19.85;;
12597;SDS011;6364;53.590;9.956;2023-08-01T05:02:24;36.58;;;19.63;;
12597;SDS011;6364;53.590;9.956;2023-08-01T05:04:50;31.10;;;19.75;;
12597;SDS011;6364;53.590;9.956;2023-08-01T05:07:15;33.95;;;19.27;;
12597;SDS011;6364;53.590;9.956;2023-08-01T05:09:41;35.58;;;18.60;;
12597;SDS011;6364;53.590;9.956;2023-08-01T05:12:06;32.80;;;19.15;;
12597;SDS011;6364;53.590;9.956;2023-08-01T05:14:32;30.23;;;18.50;;
12597;SDS011;6364;53.590;9.956;2023-08-01T05:16:57;31.15;;;18.95;;
12597;SDS011;6364;53.590;9.956;2023-08-01T05:19:22;34.85;;;18.55;;
12597;SDS011;6364;53.590;9.956;2023-08-01T05:21:48;33.97;;;19.02;;
12597;SDS011;6364;53.590;9.956;2023-08-01T05:24:13;34.42;;;17.75;;
12597;SDS011;6364;53.590;9.956;2023-08-01T05:26:39;36.28;;;18.58;;
12597;SDS011;6364;53.590;9.956;2023-08-01T05:29:04;34.85;;;19.05;;
12597;SDS011;6364;53.590;9.956;2023-08-01T05:31:29;34.63;;;18.65;;
12597;SDS011;6364;53.590;9.956;2023-08-01T05:33:55;28.67;;;17.20;;
12597;SDS011;6364;53.590;9.956;2023-08-01T05:36:21;32.72;;;18.38;;
12597;SDS011;6364;53.590;9.956;2023-08-01T05:38:46;33.35;;;19.20;;
12597;SDS011;6364;53.590;9.956;2023-08-01T05:41:12;32.25;;;17.85;;
12597;SDS011;6364;53.590;9.956;2023-08-01T05:43:37;30.65;;;18.02;;
12597;SDS011;6364;53.590;9.956;2023-08-01T05:46:02;34.42;;;17.75;;
12597;SDS011;6364;53.590;9.956;2023-08-01T05:48:28;32.58;;;17.17;;
12597;SDS011;6364;53.590;9.956;2023-08-01T05:50:53;30.00;;;17.88;;
12597;SDS011;6364;53.590;9.956;2023-08-01T05:53:20;32.53;;;18.38;;
12597;SDS011;6364;53.590;9.956;2023-08-01T05:55:46;28.55;;;16.27;;
12597;SDS011;6364;53.590;9.956;2023-08-01T05:58:11;26.45;;;16.33;;
12597;SDS011;6364;53.590;9.956;2023-08-01T06:00:37;26.05;;;15.45;;
12597;SDS011;6364;53.590;9.956;2023-08-01T06:03:02;34.10;;;16.25;;
12597;SDS011;6364;53.590;9.956;2023-08-01T06:05:28;24.58;;;15.63;;
12597;SDS011;6364;53.590;9.956;2023-08-01T06:07:53;31.80;;;16.08;;
12597;SDS011;6364;53.590;9.956;2023-08-01T06:10:18;28.13;;;15.43;;
12597;SDS011;6364;53.590;9.956;2023-08-01T06:12:44;24.27;;;14.57;;
12597;SDS011;6364;53.590;9.956;2023-08-01T06:15:10;23.83;;;13.70;;
12597;SDS011;6364;53.590;9.956;2023-08-01T06:17:35;23.42;;;14.27;;
12597;SDS011;6364;53.590;9.956;2023-08-01T06:20:01;26.55;;;14.10;;
12597;SDS011;6364;53.590;9.956;2023-08-01T06:22:29;24.92;;;13.85;;
12597;SDS011;6364;53.590;9.956;2023-08-01T06:24:56;25.40;;;14.05;;
12597;SDS011;6364;53.590;9.956;2023-08-01T06:27:21;21.88;;;13.73;;
12597;SDS011;6364;53.590;9.956;2023-08-01T06:29:46;20.90;;;12.43;;
12597;SDS011;6364;53.590;9.956;2023-08-01T06:32:12;26.83;;;12.10;;
12597;SDS011;6364;53.590;9.956;2023-08-01T06:34:37;19.42;;;11.60;;
12597;SDS011;6364;53.590;9.956;2023-08-01T06:37:03;19.20;;;11.02;;
12597;SDS011;6364;53.590;9.956;2023-08-01T06:39:29;19.92;;;11.32;;
12597;SDS011;6364;53.590;9.956;2023-08-01T06:41:54;21.05;;;10.82;;
12597;SDS011;6364;53.590;9.956;2023-08-01T06:44:20;17.88;;;9.85;;
12597;SDS011;6364;53.590;9.956;2023-08-01T06:46:45;17.05;;;9.57;;
12597;SDS011;6364;53.590;9.956;2023-08-01T06:49:11;13.15;;;8.30;;
12597;SDS011;6364;53.590;9.956;2023-08-01T06:51:36;18.40;;;8.90;;
12597;SDS011;6364;53.590;9.956;2023-08-01T06:54:02;11.82;;;8.02;;
12597;SDS011;6364;53.590;9.956;2023-08-01T06:56:27;11.25;;;6.82;;
12597;SDS011;6364;53.590;9.956;2023-08-01T06:58:52;15.13;;;6.90;;
12597;SDS011;6364;53.590;9.956;2023-08-01T07:01:18;13.05;;;6.13;;
12597;SDS011;6364;53.590;9.956;2023-08-01T07:03:44;15.25;;;6.88;;
12597;SDS011;6364;53.590;9.956;2023-08-01T07:06:10;11.93;;;6.82;;
12597;SDS011;6364;53.590;9.956;2023-08-01T07:08:35;11.73;;;6.35;;
12597;SDS011;6364;53.590;9.956;2023-08-01T07:11:01;15.60;;;6.28;;
12597;SDS011;6364;53.590;9.956;2023-08-01T07:13:27;13.63;;;5.72;;
12597;SDS011;6364;53.590;9.956;2023-08-01T07:15:53;11.23;;;5.57;;
12597;SDS011;6364;53.590;9.956;2023-08-01T07:18:18;12.07;;;5.45;;
12597;SDS011;6364;53.590;9.956;2023-08-01T07:20:44;12.70;;;5.45;;
12597;SDS011;6364;53.590;9.956;2023-08-01T07:23:09;12.60;;;5.43;;
12597;SDS011;6364;53.590;9.956;2023-08-01T07:25:38;11.38;;;5.10;;
12597;SDS011;6364;53.590;9.956;2023-08-01T07:28:03;13.23;;;5.90;;
12597;SDS011;6364;53.590;9.956;2023-08-01T07:30:28;8.68;;;5.18;;
12597;SDS011;6364;53.590;9.956;2023-08-01T07:32:54;8.30;;;4.90;;
12597;SDS011;6364;53.590;9.956;2023-08-01T07:35:19;9.82;;;5.07;;
12597;SDS011;6364;53.590;9.956;2023-08-01T07:37:45;8.38;;;4.70;;
12597;SDS011;6364;53.590;9.956;2023-08-01T07:40:10;10.70;;;5.22;;
12597;SDS011;6364;53.590;9.956;2023-08-01T07:42:36;12.35;;;4.75;;
12597;SDS011;6364;53.590;9.956;2023-08-01T07:45:01;9.38;;;4.50;;
12597;SDS011;6364;53.590;9.956;2023-08-01T07:47:37;13.07;;;5.10;;
12597;SDS011;6364;53.590;9.956;2023-08-01T07:50:23;9.85;;;4.60;;
12597;SDS011;6364;53.590;9.956;2023-08-01T07:52:48;10.93;;;4.90;;
12597;SDS011;6364;53.590;9.956;2023-08-01T07:55:14;8.45;;;4.82;;
12597;SDS011;6364;53.590;9.956;2023-08-01T07:57:39;11.50;;;4.60;;
12597;SDS011;6364;53.590;9.956;2023-08-01T08:00:05;9.52;;;4.57;;
12597;SDS011;6364;53.590;9.956;2023-08-01T08:02:30;11.13;;;4.93;;
12597;SDS011;6364;53.590;9.956;2023-08-01T08:04:56;7.25;;;4.18;;
12597;SDS011;6364;53.590;9.956;2023-08-01T08:07:21;9.60;;;4.70;;
12597;SDS011;6364;53.590;9.956;2023-08-01T08:09:47;13.38;;;5.00;;
12597;SDS011;6364;53.590;9.956;2023-08-01T08:12:12;12.30;;;5.10;;
12597;SDS011;6364;53.590;9.956;2023-08-01T08:14:37;8.20;;;4.43;;
12597;SDS011;6364;53.590;9.956;2023-08-01T08:17:09;8.80;;;4.40;;
12597;SDS011;6364;53.590;9.956;2023-08-01T08:19:35;9.32;;;4.20;;
12597;SDS011;6364;53.590;9.956;2023-08-01T08:22:00;12.00;;;4.63;;
12597;SDS011;6364;53.590;9.956;2023-08-01T08:24:25;11.52;;;4.35;;
12597;SDS011;6364;53.590;9.956;2023-08-01T08:26:51;10.10;;;4.60;;
12597;SDS011;6364;53.590;9.956;2023-08-01T08:29:16;9.98;;;5.07;;
12597;SDS011;6364;53.590;9.956;2023-08-01T08:31:42;8.73;;;4.90;;
12597;SDS011;6364;53.590;9.956;2023-08-01T08:34:07;10.15;;;5.00;;
12597;SDS011;6364;53.590;9.956;2023-08-01T08:36:32;14.85;;;5.57;;
12597;SDS011;6364;53.590;9.956;2023-08-01T08:38:58;11.07;;;5.35;;
12597;SDS011;6364;53.590;9.956;2023-08-01T08:41:23;8.95;;;5.15;;
12597;SDS011;6364;53.590;9.956;2023-08-01T08:43:51;10.27;;;6.18;;
12597;SDS011;6364;53.590;9.956;2023-08-01T08:46:21;9.27;;;5.68;;
12597;SDS011;6364;53.590;9.956;2023-08-01T08:48:46;8.95;;;5.50;;
12597;SDS011;6364;53.590;9.956;2023-08-01T08:51:12;13.30;;;5.60;;
12597;SDS011;6364;53.590;9.956;2023-08-01T08:53:38;12.77;;;5.45;;
12597;SDS011;6364;53.590;9.956;2023-08-01T08:56:07;16.70;;;5.93;;
12597;SDS011;6364;53.590;9.956;2023-08-01T08:58:33;13.57;;;6.00;;
12597;SDS011;6364;53.590;9.956;2023-08-01T09:01:01;9.40;;;6.07;;
12597;SDS011;6364;53.590;9.956;2023-08-01T09:03:27;13.98;;;5.93;;
12597;SDS011;6364;53.590;9.956;2023-08-01T09:06:03;12.32;;;5.18;;
12597;SDS011;6364;53.590;9.956;2023-08-01T09:08:35;7.65;;;4.72;;
12597;SDS011;6364;53.590;9.956;2023-08-01T09:11:01;8.95;;;4.68;;
12597;SDS011;6364;53.590;9.956;2023-08-01T09:13:27;7.70;;;4.45;;
12597;SDS011;6364;53.590;9.956;2023-08-01T09:15:52;9.15;;;4.60;;
12597;SDS011;6364;53.590;9.956;2023-08-01T09:18:17;8.30;;;4.57;;
12597;SDS011;6364;53.590;9.956;2023-08-01T09:20:44;9.10;;;4.80;;
12597;SDS011;6364;53.590;9.956;2023-08-01T09:23:10;8.23;;;4.18;;
12597;SDS011;6364;53.590;9.956;2023-08-01T09:25:36;5.35;;;3.85;;
12597;SDS011;6364;53.590;9.956;2023-08-01T09:28:02;7.53;;;3.60;;
12597;SDS011;6364;53.590;9.956;2023-08-01T09:30:27;6.60;;;4.00;;
12597;SDS011;6364;53.590;9.956;2023-08-01T09:32:56;5.13;;;3.72;;
12597;SDS011;6364;53.590;9.956;2023-08-01T09:35:22;11.73;;;4.57;;
12597;SDS011;6364;53.590;9.956;2023-08-01T09:37:48;6.85;;;3.88;;
12597;SDS011;6364;53.590;9.956;2023-08-01T09:40:14;8.63;;;3.90;;
12597;SDS011;6364;53.590;9.956;2023-08-01T09:42:40;4.57;;;3.50;;
12597;SDS011;6364;53.590;9.956;2023-08-01T09:45:14;9.20;;;3.38;;
12597;SDS011;6364;53.590;9.956;2023-08-01T09:47:40;5.70;;;3.20;;
12597;SDS011;6364;53.590;9.956;2023-08-01T09:50:06;5.00;;;2.92;;
12597;SDS011;6364;53.590;9.956;2023-08-01T09:52:32;7.47;;;2.85;;
12597;SDS011;6364;53.590;9.956;2023-08-01T09:54:58;4.85;;;2.60;;
12597;SDS011;6364;53.590;9.956;2023-08-01T09:57:23;4.97;;;2.70;;
12597;SDS011;6364;53.590;9.956;2023-08-01T09:59:54;4.30;;;2.60;;
12597;SDS011;6364;53.590;9.956;2023-08-01T10:02:21;5.30;;;2.90;;
12597;SDS011;6364;53.590;9.956;2023-08-01T10:04:49;4.72;;;2.70;;
12597;SDS011;6364;53.590;9.956;2023-08-01T10:07:17;5.15;;;3.03;;
12597;SDS011;6364;53.590;9.956;2023-08-01T10:09:46;5.15;;;2.85;;
12597;SDS011;6364;53.590;9.956;2023-08-01T10:12:12;5.57;;;2.95;;
12597;SDS011;6364;53.590;9.956;2023-08-01T10:14:38;5.60;;;2.67;;
12597;SDS011;6364;53.590;9.956;2023-08-01T10:17:04;3.25;;;2.40;;
12597;SDS011;6364;53.590;9.956;2023-08-01T10:19:31;4.43;;;2.50;;
12597;SDS011;6364;53.590;9.956;2023-08-01T10:22:00;6.45;;;2.63;;
12597;SDS011;6364;53.590;9.956;2023-08-01T10:24:26;5.53;;;2.65;;
12597;SDS011;6364;53.590;9.956;2023-08-01T10:26:52;7.07;;;2.92;;
12597;SDS011;6364;53.590;9.956;2023-08-01T10:29:18;6.65;;;2.90;;
12597;SDS011;6364;53.590;9.956;2023-08-01T10:31:53;10.23;;;3.55;;
12597;SDS011;6364;53.590;9.956;2023-08-01T10:34:19;4.30;;;2.47;;
12597;SDS011;6364;53.590;9.956;2023-08-01T10:36:57;2.22;;;1.83;;
12597;SDS011;6364;53.590;9.956;2023-08-01T10:39:23;2.55;;;1.55;;
12597;SDS011;6364;53.590;9.956;2023-08-01T10:41:56;4.18;;;1.90;;
12597;SDS011;6364;53.590;9.956;2023-08-01T10:44:26;7.30;;;2.60;;
12597;SDS011;6364;53.590;9.956;2023-08-01T10:46:59;4.45;;;1.67;;
12597;SDS011;6364;53.590;9.956;2023-08-01T10:49:59;4.90;;;2.22;;
12597;SDS011;6364;53.590;9.956;2023-08-01T10:52:21;4.20;;;2.25;;
12597;SDS011;6364;53.590;9.956;2023-08-01T10:54:58;3.90;;;2.17;;
12597;SDS011;6364;53.590;9.956;2023-08-01T10:57:26;3.00;;;2.08;;
12597;SDS011;6364;53.590;9.956;2023-08-01T10:59:52;3.78;;;2.10;;
12597;SDS011;6364;53.590;9.956;2023-08-01T11:02:22;4.03;;;2.50;;
12597;SDS011;6364;53.590;9.956;2023-08-01T11:04:58;6.47;;;1.80;;
12597;SDS011;6364;53.590;9.956;2023-08-01T11:07:25;5.70;;;1.63;;
12597;SDS011;6364;53.590;9.956;2023-08-01T11:10:02;2.92;;;1.17;;
12597;SDS011;6364;53.590;9.956;2023-08-01T11:12:27;5.47;;;1.65;;
12597;SDS011;6364;53.590;9.956;2023-08-01T11:14:58;2.45;;;1.40;;
12597;SDS011;6364;53.590;9.956;2023-08-01T11:17:25;4.50;;;1.73;;
12597;SDS011;6364;53.590;9.956;2023-08-01T11:19:51;3.60;;;1.80;;
12597;SDS011;6364;53.590;9.956;2023-08-01T11:22:16;3.70;;;1.73;;
12597;SDS011;6364;53.590;9.956;2023-08-01T11:24:44;4.45;;;1.88;;
12597;SDS011;6364;53.590;9.956;2023-08-01T11:27:14;2.90;;;1.90;;
12597;SDS011;6364;53.590;9.956;2023-08-01T11:29:40;8.27;;;1.90;;
12597;SDS011;6364;53.590;9.956;2023-08-01T11:32:06;3.78;;;1.63;;
12597;SDS011;6364;53.590;9.956;2023-08-01T11:34:39;3.55;;;1.70;;
12597;SDS011;6364;53.590;9.956;2023-08-01T11:37:05;4.30;;;1.85;;
12597;SDS011;6364;53.590;9.956;2023-08-01T11:39:31;2.30;;;1.75;;
12597;SDS011;6364;53.590;9.956;2023-08-01T11:41:57;4.35;;;1.83;;
12597;SDS011;6364;53.590;9.956;2023-08-01T11:44:25;2.58;;;1.83;;
12597;SDS011;6364;53.590;9.956;2023-08-01T11:46:51;3.22;;;1.90;;
12597;SDS011;6364;53.590;9.956;2023-08-01T11:49:16;4.05;;;1.80;;
12597;SDS011;6364;53.590;9.956;2023-08-01T11:51:42;2.03;;;1.55;;
12597;SDS011;6364;53.590;9.956;2023-08-01T11:54:09;5.57;;;1.80;;
12597;SDS011;6364;53.590;9.956;2023-08-01T11:56:36;5.90;;;2.30;;
12597;SDS011;6364;53.590;9.956;2023-08-01T11:59:09;3.95;;;2.00;;
12597;SDS011;6364;53.590;9.956;2023-08-01T12:01:42;3.58;;;1.80;;
12597;SDS011;6364;53.590;9.956;2023-08-01T12:04:08;4.50;;;2.05;;
12597;SDS011;6364;53.590;9.956;2023-08-01T12:06:34;3.75;;;2.28;;
12597;SDS011;6364;53.590;9.956;2023-08-01T12:09:08;3.35;;;2.60;;
12597;SDS011;6364;53.590;9.956;2023-08-01T12:11:35;7.60;;;2.80;;
12597;SDS011;6364;53.590;9.956;2023-08-01T12:14:04;5.88;;;2.55;;
12597;SDS011;6364;53.590;9.956;2023-08-01T12:16:34;5.35;;;2.08;;
12597;SDS011;6364;53.590;9.956;2023-08-01T12:19:01;4.45;;;2.10;;
12597;SDS011;6364;53.590;9.956;2023-08-01T12:21:26;3.60;;;2.00;;
12597;SDS011;6364;53.590;9.956;2023-08-01T12:23:51;2.63;;;1.90;;
12597;SDS011;6364;53.590;9.956;2023-08-01T12:26:17;3.55;;;1.80;;
12597;SDS011;6364;53.590;9.956;2023-08-01T12:28:42;2.50;;;1.85;;
12597;SDS011;6364;53.590;9.956;2023-08-01T12:31:08;3.05;;;1.50;;
12597;SDS011;6364;53.590;9.956;2023-08-01T12:33:33;4.70;;;1.58;;
12597;SDS011;6364;53.590;9.956;2023-08-01T12:36:02;3.38;;;1.48;;
12597;SDS011;6364;53.590;9.956;2023-08-01T12:38:28;2.78;;;1.80;;
12597;SDS011;6364;53.590;9.956;2023-08-01T12:40:53;1.27;;;1.20;;
12597;SDS011;6364;53.590;9.956;2023-08-01T12:43:19;5.03;;;1.88;;
12597;SDS011;6364;53.590;9.956;2023-08-01T12:45:46;3.08;;;1.73;;
12597;SDS011;6364;53.590;9.956;2023-08-01T12:48:11;3.78;;;1.88;;
12597;SDS011;6364;53.590;9.956;2023-08-01T12:50:37;2.08;;;1.67;;
12597;SDS011;6364;53.590;9.956;2023-08-01T12:53:02;7.03;;;1.80;;
12597;SDS011;6364;53.590;9.956;2023-08-01T12:55:27;2.30;;;1.63;;
12597;SDS011;6364;53.590;9.956;2023-08-01T12:57:53;3.95;;;1.58;;
12597;SDS011;6364;53.590;9.956;2023-08-01T13:00:18;2.50;;;1.58;;
12597;SDS011;6364;53.590;9.956;2023-08-01T13:02:44;2.13;;;1.60;;
12597;SDS011;6364;53.590;9.956;2023-08-01T13:05:09;5.53;;;1.60;;
12597;SDS011;6364;53.590;9.956;2023-08-01T13:07:35;2.35;;;1.70;;
12597;SDS011;6364;53.590;9.956;2023-08-01T13:10:00;3.08;;;1.73;;
12597;SDS011;6364;53.590;9.956;2023-08-01T13:12:26;3.53;;;1.67;;
12597;SDS011;6364;53.590;9.956;2023-08-01T13:14:54;2.63;;;1.83;;
12597;SDS011;6364;53.590;9.956;2023-08-01T13:17:20;5.20;;;1.88;;
12597;SDS011;6364;53.590;9.956;2023-08-01T13:19:45;3.28;;;1.90;;
12597;SDS011;6364;53.590;9.956;2023-08-01T13:22:10;3.65;;;2.05;;
12597;SDS011;6364;53.590;9.956;2023-08-01T13:24:36;2.47;;;1.98;;
12597;SDS011;6364;53.590;9.956;2023-08-01T13:27:02;2.75;;;1.92;;
12597;SDS011;6364;53.590;9.956;2023-08-01T13:29:28;2.85;;;1.90;;
12597;SDS011;6364;53.590;9.956;2023-08-01T13:31:53;6.55;;;1.80;;
12597;SDS011;6364;53.590;9.956;2023-08-01T13:34:18;4.40;;;1.83;;
12597;SDS011;6364;53.590;9.956;2023-08-01T13:36:44;4.65;;;2.83;;
12597;SDS011;6364;53.590;9.956;2023-08-01T13:39:09;6.65;;;2.20;;
12597;SDS011;6364;53.590;9.956;2023-08-01T13:41:35;2.83;;;2.00;;
12597;SDS011;6364;53.590;9.956;2023-08-01T13:44:00;4.13;;;2.10;;
12597;SDS011;6364;53.590;9.956;2023-08-01T13:46:27;4.13;;;2.28;;
12597;SDS011;6364;53.590;9.956;2023-08-01T13:48:52;6.60;;;2.45;;
12597;SDS011;6364;53.590;9.956;2023-08-01T13:51:17;2.03;;;1.80;;
12597;SDS011;6364;53.590;9.956;2023-08-01T13:53:43;3.72;;;2.05;;
12597;SDS011;6364;53.590;9.956;2023-08-01T13:56:11;3.00;;;1.40;;
12597;SDS011;6364;53.590;9.956;2023-08-01T13:58:38;2.65;;;1.50;;
12597;SDS011;6364;53.590;9.956;2023-08-01T14:01:04;2.83;;;1.60;;
12597;SDS011;6364;53.590;9.956;2023-08-01T14:03:32;3.20;;;1.00;;
12597;SDS011;6364;53.590;9.956;2023-08-01T14:08:29;3.47;;;1.20;;
12597;SDS011;6364;53.590;9.956;2023-08-01T14:10:55;3.78;;;1.42;;
12597;SDS011;6364;53.590;9.956;2023-08-01T14:13:20;4.93;;;1.38;;
12597;SDS011;6364;53.590;9.956;2023-08-01T14:15:45;2.97;;;1.33;;
12597;SDS011;6364;53.590;9.956;2023-08-01T14:18:11;3.03;;;1.00;;
12597;SDS011;6364;53.590;9.956;2023-08-01T14:20:36;3.10;;;0.93;;
12597;SDS011;6364;53.590;9.956;2023-08-01T14:23:02;2.05;;;1.17;;
12597;SDS011;6364;53.590;9.956;2023-08-01T14:25:28;1.77;;;1.00;;
12597;SDS011;6364;53.590;9.956;2023-08-01T14:27:53;2.05;;;1.20;;
12597;SDS011;6364;53.590;9.956;2023-08-01T14:30:18;1.40;;;1.25;;
12597;SDS011;6364;53.590;9.956;2023-08-01T14:32:44;3.00;;;1.10;;
12597;SDS011;6364;53.590;9.956;2023-08-01T14:35:09;1.27;;;1.10;;
12597;SDS011;6364;53.590;9.956;2023-08-01T14:37:35;4.78;;;1.20;;
12597;SDS011;6364;53.590;9.956;2023-08-01T14:40:01;1.10;;;0.80;;
12597;SDS011;6364;53.590;9.956;2023-08-01T14:42:28;0.95;;;0.68;;
12597;SDS011;6364;53.590;9.956;2023-08-01T14:44:53;1.15;;;0.73;;
12597;SDS011;6364;53.590;9.956;2023-08-01T14:47:19;0.50;;;0.50;;